Details From KSFO - San Francisco Intl
To KMMH - Mammoth Yosemite
Flight Number -
Tags decoded
Created
Modified
Stats Distance 168 nm / 312 km
Max Altitude 0 ft / 0 m
Waypoints 2
Social Downloads 0
Likes 0
Share VATSIM

Download

Looking for another format? Having issues loading an existing format? Contact us
Advertisement - Login to hide

Notes

Requested: KSFO KMMH

Route

KSFO KMMH

ID Type Via Altitude Latitude Longitude Leg Dist Tot Dist Heading (true) Name
O KSFO APT - 0 ft / 0 m 37.61867˚ -122.37501˚ - 0 nm - San Francisco Intl
O KMMH APT - 0 ft / 0 m 37.62405˚ -118.83874˚ 168 nm 168 nm 89° / 91° Mammoth Yosemite

Altitude Profile

Advertisement - Login to hide

Weather


0- 5 10 15 20 25 30 35+ Temperature / ° C

Clouds and Precipitation
Forecast for 2017-12-16 18:00 UTC. Updated an hour ago

Ground ~20,000 ft ~40,000 ft Winds

KSFO

Details ICAO KSFO (SFO)
Name San Francisco Intl
Region United States
Timezone America/Los_Angeles (UTC-8.0)
Stats Elevation 13 ft / 4 m (AMSL)
Location 37.618674° -122.375008°
Runways 4
Magnetic Variation 13.463° E

METAR

KSFO 161756Z 36021G26KT 10SM FEW200 15/M02 A2997 RMK AO2 PK WND 35026/1746 SLP148 T01501017 10150 20094 50003

Decode

TAF

KSFO 161734Z 1618/1724 33018G28KT P6SM FEW200 WS020/01040KT FM162000 35023G33KT P6SM SKC WS020/01040KT FM170300 36020G30KT P6SM SKC WS020/01040KT FM170900 01012KT P6SM SKC FM171200 VRB04KT P6SM SKC

Decode

Departure Runways

ID Width Length Bearing (true) Bearing (mag) Surface Threshold Offset Overrun Length
01L 200 ft / 61 m 7,509 ft / 2,289 m 27.70° 14.24° Asphalt 492 ft / 150 m 0 ft / 0 m
01R 200 ft / 61 m 8,907 ft / 2,715 m 27.71° 14.25° Asphalt 492 ft / 150 m 0 ft / 0 m
10L 200 ft / 61 m 11,856 ft / 3,614 m 117.89° 104.43° Asphalt 0 ft / 0 m 860 ft / 262 m
10R 200 ft / 61 m 10,589 ft / 3,228 m 117.90° 104.44° Asphalt 0 ft / 0 m 0 ft / 0 m
19L 200 ft / 61 m 8,907 ft / 2,715 m 207.72° 194.26° Asphalt 0 ft / 0 m 0 ft / 0 m
19R 200 ft / 61 m 7,509 ft / 2,289 m 207.70° 194.24° Asphalt 0 ft / 0 m 0 ft / 0 m
28L 200 ft / 61 m 10,589 ft / 3,228 m 297.92° 284.46° Asphalt 0 ft / 0 m 341 ft / 104 m
28R 200 ft / 61 m 11,856 ft / 3,614 m 297.91° 284.45° Asphalt 0 ft / 0 m 341 ft / 104 m

KMMH

Details ICAO KMMH (MMH)
Name Mammoth Yosemite
Region United States
Timezone America/Los_Angeles (UTC-8.0)
Stats Elevation 7,128 ft / 2,173 m (AMSL)
Location 37.624049° -118.838737°
Runways 1
Magnetic Variation 12.823° E

METAR

KMMH 161835Z AUTO 29011G16KT 10SM BKN029 BKN035 OVC041 00/M06 A2997 RMK AO2 T00021060 PWINO

Decode

TAF

TAF AMD KMMH 161435Z 1615/1712 28014G22KT P6SM BKN025 OVC035 FM161700 30014G28KT P6SM SCT040 FM170600 31008KT P6SM SKC

Decode

Destination Runways

ID Width Length Bearing (true) Bearing (mag) Surface Threshold Offset Overrun Length
09 98 ft / 30 m 6,987 ft / 2,130 m 109.02° 96.20° Asphalt 0 ft / 0 m 2,999 ft / 914 m
27 98 ft / 30 m 6,987 ft / 2,130 m 289.03° 276.21° Asphalt 0 ft / 0 m 0 ft / 0 m

Popular Alternatives